Time;durP1;ratioP1;P1;durP2;ratioP2;P2;SDS_P1;SDS_P2;PMS_P1;PMS_P2;Temp;Humidity;BMP_temperature;BMP_pressure;BME280_temperature;BME280_humidity;BME280_pressure;Samples;Min_cycle;Max_cycle;Signal;HPM_P1;HPM_P2
2022/03/17 00:00:55;;;;;;;29.48;20.17;;;10.50;99.90;;;;;;5090780;28;20051;-82
2022/03/17 00:03:21;;;;;;;32.22;19.58;;;10.40;99.90;;;;;;5074007;28;20139;-82
2022/03/17 00:05:47;;;;;;;27.65;18.98;;;10.30;99.90;;;;;;5091308;28;20418;-80
2022/03/17 00:08:14;;;;;;;29.38;19.88;;;10.40;99.90;;;;;;5074015;28;20044;-80
2022/03/17 00:10:39;;;;;;;30.65;20.38;;;10.30;99.90;;;;;;5074074;28;20143;-81
2022/03/17 00:13:05;;;;;;;33.72;20.45;;;10.40;99.90;;;;;;5091391;28;20219;-82
2022/03/17 00:15:31;;;;;;;29.17;19.30;;;10.40;99.90;;;;;;5090312;28;20079;-83
2022/03/17 00:17:57;;;;;;;28.92;20.85;;;10.30;99.90;;;;;;5074575;28;20040;-83
2022/03/17 00:20:23;;;;;;;34.20;20.88;;;10.30;99.90;;;;;;5073889;28;20100;-81
2022/03/17 00:22:49;;;;;;;31.58;20.45;;;10.20;99.90;;;;;;5091088;28;20044;-80
2022/03/17 00:25:15;;;;;;;28.40;20.50;;;10.20;99.90;;;;;;5091260;28;20101;-82
2022/03/17 00:27:41;;;;;;;29.90;19.88;;;10.20;99.90;;;;;;5074555;28;20069;-83
2022/03/17 00:30:07;;;;;;;32.15;21.00;;;10.20;99.90;;;;;;5073602;28;20123;-81
2022/03/17 00:32:33;;;;;;;31.13;19.92;;;10.20;99.90;;;;;;5074615;28;20035;-83
2022/03/17 00:37:43;;;;;;;31.05;20.60;;;10.30;99.90;;;;;;5091234;28;20337;-82
2022/03/17 00:40:09;;;;;;;29.40;19.13;;;10.20;99.90;;;;;;5086470;28;20063;-81
2022/03/17 00:42:36;;;;;;;31.25;21.27;;;10.20;99.90;;;;;;5111360;28;20040;-81
2022/03/17 00:45:02;;;;;;;31.65;21.90;;;10.30;99.90;;;;;;5111877;28;20469;-82
2022/03/17 00:47:28;;;;;;;30.58;21.23;;;10.20;99.90;;;;;;5093451;28;20132;-84
2022/03/17 00:49:54;;;;;;;31.20;20.30;;;10.20;99.90;;;;;;5111148;28;20090;-82
2022/03/17 00:52:20;;;;;;;32.97;21.20;;;10.20;99.90;;;;;;5110935;28;20514;-83
2022/03/17 00:54:46;;;;;;;30.98;20.70;;;10.20;99.90;;;;;;5110970;28;20443;-83
2022/03/17 00:57:12;;;;;;;32.75;20.40;;;10.10;99.90;;;;;;5111060;28;20440;-82
2022/03/17 00:59:40;;;;;;;32.17;20.17;;;10.10;99.90;;;;;;5094199;28;20047;-81
2022/03/17 01:02:06;;;;;;;29.83;21.80;;;10.20;99.90;;;;;;5093019;28;20109;-82
2022/03/17 01:04:36;;;;;;;31.40;21.13;;;10.20;99.90;;;;;;5093845;28;20051;-83
2022/03/17 01:07:02;;;;;;;31.35;22.10;;;10.10;99.90;;;;;;5110081;28;20092;-80
2022/03/17 01:09:28;;;;;;;34.05;21.75;;;10.10;99.90;;;;;;5093874;28;20044;-80
2022/03/17 01:11:54;;;;;;;29.15;19.15;;;10.10;99.90;;;;;;5095835;28;20498;-82
2022/03/17 01:14:20;;;;;;;29.80;21.00;;;10.00;99.90;;;;;;5089691;28;20439;-81
2022/03/17 01:16:46;;;;;;;29.98;20.88;;;10.20;99.90;;;;;;5089802;28;20082;-83
2022/03/17 01:19:12;;;;;;;30.38;20.63;;;10.10;99.90;;;;;;5073504;28;20043;-83
2022/03/17 01:21:37;;;;;;;33.35;20.98;;;10.20;99.90;;;;;;5091245;28;20490;-81
2022/03/17 01:24:03;;;;;;;33.33;20.98;;;10.20;99.90;;;;;;5090046;28;20036;-81
2022/03/17 01:26:30;;;;;;;33.00;20.65;;;10.20;99.90;;;;;;5089893;28;20047;-81
2022/03/17 01:28:55;;;;;;;29.80;21.30;;;10.30;99.90;;;;;;5090661;28;20044;-83
2022/03/17 01:31:24;;;;;;;35.63;21.73;;;10.10;99.90;;;;;;5072538;28;20423;-83
2022/03/17 01:33:50;;;;;;;34.22;22.35;;;10.10;99.90;;;;;;5090231;28;20048;-83
2022/03/17 01:36:16;;;;;;;35.55;21.83;;;10.10;99.90;;;;;;5072714;28;20497;-81
2022/03/17 01:38:42;;;;;;;35.30;21.73;;;10.10;99.90;;;;;;5089733;28;20044;-83
2022/03/17 01:41:08;;;;;;;33.17;21.02;;;10.10;99.90;;;;;;5093617;28;20065;-83
2022/03/17 01:43:33;;;;;;;31.27;21.05;;;10.20;99.90;;;;;;5076637;28;20404;-81
2022/03/17 01:45:59;;;;;;;33.35;22.30;;;10.10;99.90;;;;;;5088862;28;20051;-80
2022/03/17 01:48:25;;;;;;;34.55;22.50;;;10.20;99.90;;;;;;5073167;28;20044;-81
2022/03/17 01:50:53;;;;;;;33.42;22.08;;;10.20;99.90;;;;;;5072869;28;20059;-82
2022/03/17 01:53:22;;;;;;;31.77;20.40;;;10.20;99.90;;;;;;5072932;28;20060;-81
2022/03/17 01:55:48;;;;;;;29.42;20.67;;;10.20;99.90;;;;;;5073283;28;20500;-80
2022/03/17 01:58:14;;;;;;;32.25;21.88;;;10.20;99.90;;;;;;5089893;28;20044;-82
2022/03/17 02:00:40;;;;;;;30.40;21.58;;;10.10;99.90;;;;;;5089400;28;20043;-82
2022/03/17 02:03:06;;;;;;;29.30;20.85;;;10.10;99.90;;;;;;5089829;28;20115;-82
2022/03/17 02:05:34;;;;;;;29.42;20.55;;;10.10;99.90;;;;;;5072878;28;20443;-81
2022/03/17 02:08:01;;;;;;;26.42;17.88;;;10.10;99.90;;;;;;5089468;28;20060;-81
2022/03/17 02:10:26;;;;;;;30.95;21.10;;;10.10;99.90;;;;;;5072470;28;20047;-82
2022/03/17 02:13:10;;;;;;;30.88;21.02;;;10.20;99.90;;;;;;5091315;28;20122;-80
2022/03/17 02:15:37;;;;;;;32.72;22.50;;;10.20;99.90;;;;;;5072244;28;20064;-80
2022/03/17 02:18:07;;;;;;;32.65;21.83;;;10.20;99.90;;;;;;5089654;28;20048;-82
2022/03/17 02:20:34;;;;;;;31.83;22.30;;;10.20;99.90;;;;;;5072683;28;20468;-82
2022/03/17 02:25:52;;;;;;;36.17;22.65;;;10.30;99.90;;;;;;5089720;28;20451;-83
2022/03/17 02:28:18;;;;;;;32.35;21.40;;;10.20;99.90;;;;;;5093470;28;20040;-82
2022/03/17 02:30:45;;;;;;;37.08;23.08;;;10.20;99.90;;;;;;5092929;28;20163;-81
2022/03/17 02:33:16;;;;;;;31.08;22.30;;;10.10;99.90;;;;;;5075997;28;20067;-81
2022/03/17 02:35:43;;;;;;;30.20;22.33;;;10.00;99.90;;;;;;5076127;28;20040;-80
2022/03/17 02:38:11;;;;;;;31.90;21.98;;;10.20;99.90;;;;;;5093492;28;20166;-82
2022/03/17 02:40:38;;;;;;;32.03;22.92;;;10.10;99.90;;;;;;5109444;28;20402;-82
2022/03/17 02:43:05;;;;;;;31.13;22.50;;;10.20;99.90;;;;;;5092785;28;20044;-81
2022/03/17 02:45:31;;;;;;;32.80;22.65;;;10.10;99.90;;;;;;5092092;28;20051;-79
2022/03/17 02:47:57;;;;;;;34.70;22.63;;;10.10;99.90;;;;;;5093178;28;20072;-82
2022/03/17 02:50:22;;;;;;;32.83;22.85;;;10.10;99.90;;;;;;5092923;28;20403;-80
2022/03/17 02:52:48;;;;;;;31.50;22.50;;;10.20;99.90;;;;;;5093182;28;20127;-81
2022/03/17 02:55:15;;;;;;;33.97;22.85;;;10.20;99.90;;;;;;5075971;28;20075;-80
2022/03/17 02:57:43;;;;;;;34.42;23.17;;;10.10;99.90;;;;;;5076046;28;20039;-82
2022/03/17 03:00:10;;;;;;;28.20;21.17;;;10.20;99.90;;;;;;5092299;28;20388;-82
2022/03/17 03:02:36;;;;;;;31.48;23.38;;;10.20;99.90;;;;;;5092836;28;20036;-81
2022/03/17 03:05:07;;;;;;;32.95;23.45;;;10.20;99.90;;;;;;5075643;28;20119;-82
2022/03/17 03:07:32;;;;;;;32.70;22.67;;;10.20;99.90;;;;;;5059291;28;20078;-82
2022/03/17 03:09:58;;;;;;;33.17;23.20;;;10.20;99.90;;;;;;5093161;28;20044;-81
2022/03/17 03:12:24;;;;;;;33.65;23.73;;;10.20;99.90;;;;;;5092850;28;20082;-83
2022/03/17 03:14:50;;;;;;;31.67;22.13;;;10.20;99.90;;;;;;5076332;28;20137;-82
2022/03/17 03:17:16;;;;;;;33.45;23.38;;;10.40;99.90;;;;;;5093040;28;20043;-82
2022/03/17 03:19:45;;;;;;;33.22;23.67;;;10.30;99.90;;;;;;5092941;28;20081;-83
2022/03/17 03:22:11;;;;;;;37.50;24.30;;;10.30;99.90;;;;;;5092715;28;20501;-83
2022/03/17 03:24:36;;;;;;;32.58;23.50;;;10.30;99.90;;;;;;5075408;28;20368;-81
2022/03/17 03:27:03;;;;;;;34.58;23.60;;;10.20;99.90;;;;;;5093512;28;20047;-81
2022/03/17 03:29:29;;;;;;;35.03;23.75;;;10.30;99.90;;;;;;5092740;28;20047;-82
2022/03/17 03:31:57;;;;;;;30.23;22.55;;;10.20;99.90;;;;;;5091208;28;20039;-83
2022/03/17 03:34:23;;;;;;;35.92;23.55;;;10.30;99.90;;;;;;5092495;28;20428;-81
2022/03/17 03:39:34;;;;;;;32.75;23.67;;;10.30;99.90;;;;;;5098683;28;20421;-83
2022/03/17 03:42:01;;;;;;;34.08;24.42;;;10.40;99.90;;;;;;5095594;28;20044;-81
2022/03/17 03:44:26;;;;;;;35.50;23.20;;;10.30;99.90;;;;;;5112832;28;20130;-82
2022/03/17 03:46:52;;;;;;;35.28;23.88;;;10.30;99.90;;;;;;5111654;28;20142;-82
2022/03/17 03:49:18;;;;;;;34.80;23.73;;;10.30;99.90;;;;;;5095468;28;20528;-82
2022/03/17 03:51:44;;;;;;;32.25;24.23;;;10.30;99.90;;;;;;5112242;28;20031;-82
2022/03/17 03:54:13;;;;;;;35.80;23.63;;;10.30;99.90;;;;;;5112414;28;20036;-82
2022/03/17 03:56:40;;;;;;;31.80;23.67;;;10.40;99.90;;;;;;5112455;28;20067;-80
2022/03/17 03:59:18;;;;;;;33.85;24.45;;;10.30;99.90;;;;;;5112163;28;20039;-82
2022/03/17 04:01:44;;;;;;;34.13;25.15;;;10.40;99.90;;;;;;5111611;28;20119;-82
2022/03/17 04:04:17;;;;;;;34.72;25.60;;;10.40;99.90;;;;;;5113809;28;20505;-81
2022/03/17 04:06:46;;;;;;;37.40;26.85;;;10.50;99.90;;;;;;5094694;28;20233;-81
2022/03/17 04:09:13;;;;;;;39.00;25.38;;;10.30;99.90;;;;;;5112124;28;20406;-81
2022/03/17 04:11:40;;;;;;;40.78;29.38;;;10.30;99.90;;;;;;5082268;28;20032;-83
2022/03/17 04:14:06;;;;;;;37.97;28.25;;;10.20;99.90;;;;;;5091959;28;20047;-83
2022/03/17 04:16:32;;;;;;;38.75;26.45;;;10.40;99.90;;;;;;5091384;28;20085;-82
2022/03/17 04:18:58;;;;;;;42.78;29.92;;;10.00;99.90;;;;;;5074630;28;20497;-83
2022/03/17 04:21:23;;;;;;;38.78;29.65;;;10.00;99.90;;;;;;5091572;28;20150;-82
2022/03/17 04:23:50;;;;;;;43.70;31.40;;;9.90;99.90;;;;;;5074600;28;20392;-82
2022/03/17 04:26:16;;;;;;;43.58;32.60;;;9.80;99.90;;;;;;5074286;28;20044;-82
2022/03/17 04:28:42;;;;;;;44.45;32.13;;;9.80;99.90;;;;;;5074487;28;20051;-84
2022/03/17 04:31:08;;;;;;;44.83;31.45;;;9.90;99.90;;;;;;5074150;28;20036;-84
2022/03/17 04:33:34;;;;;;;46.67;33.65;;;9.70;99.90;;;;;;5074063;28;20097;-85
2022/03/17 04:36:02;;;;;;;46.95;32.35;;;9.60;99.90;;;;;;5073965;28;20036;-83
2022/03/17 04:38:28;;;;;;;49.38;32.45;;;10.20;99.90;;;;;;5074319;28;20123;-83
2022/03/17 04:40:54;;;;;;;48.00;32.97;;;9.50;99.90;;;;;;5109865;28;20071;-82
2022/03/17 04:43:20;;;;;;;51.55;35.35;;;9.50;99.90;;;;;;5080089;28;20044;-82
2022/03/17 04:45:46;;;;;;;51.75;34.67;;;9.50;99.90;;;;;;5090229;28;20548;-83
2022/03/17 04:48:13;;;;;;;57.30;36.65;;;9.40;99.90;;;;;;5091122;28;20082;-84
2022/03/17 04:50:39;;;;;;;54.53;36.92;;;9.40;99.90;;;;;;5090500;28;20579;-84
2022/03/17 04:55:50;;;;;;;54.08;38.28;;;9.40;99.90;;;;;;5090553;28;20044;-85
2022/03/17 04:58:16;;;;;;;59.47;39.08;;;9.30;99.90;;;;;;5074174;28;20047;-85
2022/03/17 05:00:41;;;;;;;60.53;38.72;;;9.40;99.90;;;;;;5072974;28;20406;-83
2022/03/17 05:03:11;;;;;;;62.92;41.00;;;9.40;99.90;;;;;;5090829;28;20061;-84
2022/03/17 05:05:37;;;;;;;63.35;40.75;;;9.40;99.90;;;;;;5091353;28;20050;-85
2022/03/17 05:08:05;;;;;;;61.33;42.03;;;9.40;99.90;;;;;;5074190;28;20044;-83
2022/03/17 05:10:34;;;;;;;66.10;42.08;;;9.40;99.90;;;;;;5073859;28;20040;-84
2022/03/17 05:12:59;;;;;;;51.85;34.28;;;9.30;99.90;;;;;;5073758;28;20051;-84
2022/03/17 05:15:28;;;;;;;19.42;14.52;;;9.30;99.90;;;;;;5091107;28;20048;-84
2022/03/17 05:17:54;;;;;;;14.75;11.27;;;9.30;99.90;;;;;;5090551;28;20050;-84
2022/03/17 05:20:59;;;;;;;15.43;11.50;;;9.00;99.90;;;;;;5090351;28;20036;-83
2022/03/17 05:23:24;;;;;;;13.70;10.50;;;9.00;99.90;;;;;;5090376;28;20052;-83
2022/03/17 05:25:51;;;;;;;11.65;8.88;;;8.70;99.90;;;;;;5073556;28;20063;-83
2022/03/17 05:28:17;;;;;;;9.95;7.97;;;8.70;99.90;;;;;;5090275;28;20479;-82
2022/03/17 05:30:44;;;;;;;12.50;8.95;;;8.60;99.90;;;;;;5072537;28;20068;-82
2022/03/17 05:33:11;;;;;;;9.75;7.40;;;8.60;99.90;;;;;;5073788;28;20079;-81
2022/03/17 05:35:40;;;;;;;9.93;8.18;;;8.50;99.90;;;;;;5073005;28;20131;-81
2022/03/17 05:38:06;;;;;;;9.57;6.93;;;8.50;99.90;;;;;;5090322;28;20508;-80
2022/03/17 05:40:32;;;;;;;11.30;8.05;;;8.40;99.90;;;;;;5105540;28;20047;-80
2022/03/17 05:43:00;;;;;;;14.65;7.30;;;8.30;99.90;;;;;;5099275;28;20040;-79
2022/03/17 05:45:27;;;;;;;14.38;8.77;;;8.40;99.90;;;;;;5090656;28;20047;-81
2022/03/17 05:47:55;;;;;;;13.23;8.43;;;8.60;99.90;;;;;;5090094;28;20047;-81
2022/03/17 05:50:22;;;;;;;17.05;9.20;;;8.30;99.90;;;;;;5089819;28;20530;-80
2022/03/17 05:52:49;;;;;;;14.93;8.55;;;8.20;99.90;;;;;;5090102;28;20067;-79
2022/03/17 05:55:20;;;;;;;22.52;11.52;;;8.20;99.90;;;;;;5090140;28;20036;-80
2022/03/17 05:57:47;;;;;;;15.52;8.45;;;8.20;99.90;;;;;;5090064;28;20537;-81
2022/03/17 06:00:23;;;;;;;22.60;12.23;;;8.10;99.90;;;;;;5088902;28;20051;-80
2022/03/17 06:02:50;;;;;;;28.05;12.65;;;8.10;99.90;;;;;;5093288;28;20040;-79
2022/03/17 06:05:16;;;;;;;25.77;11.90;;;8.00;99.90;;;;;;5093511;28;20036;-79
2022/03/17 06:07:43;;;;;;;18.58;10.50;;;8.20;99.90;;;;;;5093578;28;20544;-79
2022/03/17 06:10:14;;;;;;;17.00;7.82;;;8.10;99.90;;;;;;5093657;28;20540;-80
2022/03/17 06:12:41;;;;;;;15.40;8.27;;;8.00;99.90;;;;;;5093950;28;20040;-81
2022/03/17 06:15:07;;;;;;;20.27;8.13;;;7.90;99.90;;;;;;5093255;28;20063;-79
2022/03/17 06:17:41;;;;;;;11.10;5.80;;;7.90;99.90;;;;;;5093647;28;20123;-79
2022/03/17 06:20:09;;;;;;;17.00;6.18;;;7.90;99.90;;;;;;5095088;28;20446;-80
2022/03/17 06:22:40;;;;;;;15.60;6.70;;;7.90;99.90;;;;;;5093919;28;20123;-81
2022/03/17 06:25:08;;;;;;;21.92;6.63;;;7.80;99.90;;;;;;5093451;28;20035;-79
2022/03/17 06:27:36;;;;;;;18.35;6.32;;;7.80;99.90;;;;;;5076683;28;20055;-79
2022/03/17 06:30:08;;;;;;;18.85;6.90;;;7.90;99.90;;;;;;5076337;28;20040;-78
2022/03/17 06:32:34;;;;;;;19.40;7.10;;;7.90;99.90;;;;;;5076924;28;20051;-80
2022/03/17 06:35:00;;;;;;;16.05;6.10;;;7.90;99.90;;;;;;5093297;28;20036;-80
2022/03/17 06:37:26;;;;;;;20.98;5.85;;;7.90;99.90;;;;;;5093329;28;20047;-79
2022/03/17 06:39:53;;;;;;;24.17;6.05;;;7.90;99.90;;;;;;5103177;28;20043;-80
2022/03/17 06:42:20;;;;;;;21.23;5.20;;;7.80;99.90;;;;;;5109230;28;20172;-79
2022/03/17 06:44:46;;;;;;;15.88;3.85;;;7.80;99.90;;;;;;5093264;28;20056;-80
2022/03/17 06:47:15;;;;;;;12.05;3.53;;;7.90;99.90;;;;;;5093513;28;20387;-79
2022/03/17 06:49:40;;;;;;;15.25;3.65;;;7.80;99.90;;;;;;5076075;28;20040;-81
2022/03/17 06:52:07;;;;;;;10.60;3.10;;;7.80;99.90;;;;;;5092965;28;20036;-79
2022/03/17 06:54:32;;;;;;;15.77;3.30;;;7.80;99.90;;;;;;5092990;28;20109;-80
2022/03/17 06:56:59;;;;;;;13.57;2.50;;;7.70;99.90;;;;;;5093106;28;20043;-80
2022/03/17 06:59:25;;;;;;;11.52;2.60;;;7.90;99.90;;;;;;5075978;28;20040;-79
2022/03/17 07:01:51;;;;;;;11.70;2.50;;;7.90;99.90;;;;;;5092007;28;20044;-78
2022/03/17 07:04:16;;;;;;;8.38;1.60;;;8.00;99.90;;;;;;5094136;28;20040;-80
2022/03/17 07:06:42;;;;;;;10.27;2.30;;;7.80;99.90;;;;;;5075563;28;20052;-81
2022/03/17 07:09:07;;;;;;;14.15;1.90;;;7.70;99.90;;;;;;5092699;28;20102;-81
2022/03/17 07:11:33;;;;;;;14.90;2.65;;;7.70;99.90;;;;;;5076094;28;20052;-80
2022/03/17 07:13:59;;;;;;;9.48;1.60;;;7.70;99.90;;;;;;5092460;28;20092;-81
2022/03/17 07:16:24;;;;;;;8.18;1.50;;;7.80;99.90;;;;;;5074777;28;20055;-83
2022/03/17 07:18:50;;;;;;;13.13;2.08;;;7.80;99.90;;;;;;5092671;28;20087;-82
2022/03/17 07:21:16;;;;;;;12.75;2.05;;;8.00;99.90;;;;;;5075911;28;20064;-82
2022/03/17 07:23:42;;;;;;;12.90;2.38;;;7.70;99.90;;;;;;5094205;28;20032;-81
2022/03/17 07:26:08;;;;;;;8.95;1.92;;;7.80;99.90;;;;;;5092585;28;20093;-80
2022/03/17 07:28:33;;;;;;;12.88;2.30;;;7.80;99.90;;;;;;5075764;28;20032;-78
2022/03/17 07:30:59;;;;;;;8.90;1.92;;;7.70;99.90;;;;;;5074539;28;20101;-81
2022/03/17 07:33:24;;;;;;;13.95;2.20;;;7.70;99.90;;;;;;5092184;28;20032;-79
2022/03/17 07:35:50;;;;;;;17.85;2.28;;;7.70;99.90;;;;;;5092267;28;20070;-78
2022/03/17 07:38:16;;;;;;;11.02;2.30;;;7.70;99.90;;;;;;5093799;28;20429;-81
2022/03/17 07:40:42;;;;;;;13.90;2.40;;;7.80;99.90;;;;;;5110582;28;20051;-80
2022/03/17 07:43:08;;;;;;;16.10;2.22;;;7.90;99.90;;;;;;5112184;28;20039;-79
2022/03/17 07:45:34;;;;;;;16.75;3.08;;;7.80;99.90;;;;;;5111826;28;20078;-80
2022/03/17 07:48:00;;;;;;;15.27;2.38;;;7.70;99.90;;;;;;5114030;28;20035;-80
2022/03/17 07:50:26;;;;;;;23.27;2.97;;;7.80;99.90;;;;;;5112422;28;20673;-80
2022/03/17 07:52:51;;;;;;;14.82;2.00;;;7.60;99.90;;;;;;5095715;28;20040;-81
2022/03/17 07:55:17;;;;;;;22.23;2.95;;;7.60;99.90;;;;;;5078011;28;20043;-79
2022/03/17 07:57:43;;;;;;;17.50;2.60;;;7.80;99.90;;;;;;5113828;28;20114;-81
2022/03/17 08:00:13;;;;;;;14.65;2.25;;;7.70;99.90;;;;;;5113106;27;20116;-79
2022/03/17 08:02:43;;;;;;;12.27;1.92;;;7.70;99.90;;;;;;5112390;28;20474;-78
2022/03/17 08:05:14;;;;;;;17.30;2.30;;;7.90;99.90;;;;;;5094664;28;20051;-80
2022/03/17 08:07:39;;;;;;;18.08;2.42;;;7.90;99.90;;;;;;5112062;28;20177;-77
2022/03/17 08:10:06;;;;;;;14.85;1.92;;;7.80;99.90;;;;;;5113511;28;20065;-81
2022/03/17 08:12:33;;;;;;;13.27;2.13;;;7.80;99.90;;;;;;5113430;28;20603;-78
2022/03/17 08:14:59;;;;;;;11.90;1.58;;;7.80;99.90;;;;;;5111549;28;20122;-77
2022/03/17 08:17:25;;;;;;;25.05;2.97;;;7.80;99.90;;;;;;5111307;28;20126;-79
2022/03/17 08:19:51;;;;;;;22.50;3.28;;;7.80;99.90;;;;;;5094151;28;20051;-79
2022/03/17 08:22:17;;;;;;;15.55;2.35;;;8.00;99.90;;;;;;5095271;28;20039;-79
2022/03/17 08:24:42;;;;;;;15.57;2.22;;;7.80;99.90;;;;;;5093835;28;20498;-79
2022/03/17 08:27:08;;;;;;;15.93;2.42;;;7.80;99.90;;;;;;5111698;28;20036;-81
2022/03/17 08:29:34;;;;;;;26.83;3.75;;;7.80;99.90;;;;;;5095111;28;20040;-80
2022/03/17 08:32:00;;;;;;;27.10;2.40;;;7.90;99.90;;;;;;5091387;28;20035;-79
2022/03/17 08:34:26;;;;;;;22.20;2.85;;;7.80;99.90;;;;;;5091352;28;20051;-80
2022/03/17 08:36:54;;;;;;;32.67;3.63;;;7.90;99.90;;;;;;5073975;28;20036;-81
2022/03/17 08:39:20;;;;;;;12.77;1.75;;;7.90;99.90;;;;;;5098144;28;20123;-80
2022/03/17 08:41:46;;;;;;;17.23;2.28;;;8.00;99.90;;;;;;5094446;28;20036;-78
2022/03/17 08:44:11;;;;;;;15.68;2.40;;;8.00;99.90;;;;;;5093841;28;20062;-78
2022/03/17 08:49:22;;;;;;;9.95;2.03;;;7.90;99.90;;;;;;5111281;28;20127;-82
2022/03/17 08:52:01;;;;;;;17.95;2.10;;;7.90;99.90;;;;;;5093614;28;20050;-83
2022/03/17 08:54:29;;;;;;;18.83;2.15;;;7.90;99.90;;;;;;5094034;28;20040;-81
2022/03/17 08:56:59;;;;;;;20.45;2.63;;;7.90;99.90;;;;;;5112272;28;20050;-80
2022/03/17 08:59:30;;;;;;;18.73;2.60;;;7.80;99.90;;;;;;5112134;28;20123;-79
2022/03/17 09:02:05;;;;;;;10.70;1.83;;;8.00;99.90;;;;;;5111384;28;20039;-80
2022/03/17 09:04:32;;;;;;;18.70;2.80;;;7.90;99.90;;;;;;5110854;28;20040;-78
2022/03/17 09:07:01;;;;;;;22.77;3.25;;;7.90;99.90;;;;;;5093071;28;20059;-80
2022/03/17 09:09:28;;;;;;;16.23;2.42;;;7.90;99.90;;;;;;5110839;28;20127;-82
2022/03/17 09:11:54;;;;;;;25.52;3.15;;;8.30;99.90;;;;;;5112208;28;20176;-82
2022/03/17 09:14:21;;;;;;;16.90;2.50;;;8.10;99.90;;;;;;5110724;28;20127;-83
2022/03/17 09:16:48;;;;;;;16.52;2.45;;;8.60;99.90;;;;;;5093093;28;20043;-82
2022/03/17 09:19:13;;;;;;;11.27;1.98;;;8.20;99.90;;;;;;5112374;28;20054;-82
2022/03/17 09:21:39;;;;;;;14.57;2.03;;;8.10;99.90;;;;;;5093687;28;20431;-80
2022/03/17 09:24:05;;;;;;;15.15;2.13;;;8.30;99.90;;;;;;5110992;28;20498;-83
2022/03/17 09:26:31;;;;;;;18.67;2.45;;;8.00;99.90;;;;;;5093677;28;20050;-81
2022/03/17 09:28:58;;;;;;;17.77;2.55;;;8.00;99.90;;;;;;5110631;28;20047;-82
2022/03/17 09:31:23;;;;;;;28.33;2.88;;;8.20;99.90;;;;;;5110026;28;20062;-82
2022/03/17 09:33:49;;;;;;;21.92;2.55;;;8.30;99.90;;;;;;5110567;28;20571;-81
2022/03/17 09:36:18;;;;;;;17.80;3.13;;;8.40;99.90;;;;;;5111399;28;20122;-83
2022/03/17 09:39:39;;;;;;;17.17;2.78;;;8.50;99.90;;;;;;5110453;28;20039;-80
2022/03/17 09:41:33;;;;;;;17.48;2.60;;;8.60;99.90;;;;;;5110198;28;20059;-81
2022/03/17 09:43:59;;;;;;;15.60;2.53;;;8.80;99.90;;;;;;5110631;28;20082;-80
2022/03/17 09:46:27;;;;;;;21.08;2.92;;;8.60;99.90;;;;;;5092483;28;20122;-84
2022/03/17 09:48:55;;;;;;;20.38;2.35;;;8.70;99.90;;;;;;5110183;28;20071;-84
2022/03/17 09:51:24;;;;;;;17.05;2.28;;;8.80;99.90;;;;;;5110531;28;20047;-82
2022/03/17 09:53:53;;;;;;;13.88;2.30;;;8.90;99.90;;;;;;5111862;28;20054;-83
2022/03/17 09:56:23;;;;;;;20.60;2.38;;;9.00;99.90;;;;;;5110441;28;20121;-79
2022/03/17 09:58:51;;;;;;;15.25;2.50;;;9.00;99.90;;;;;;5110530;28;20055;-79
2022/03/17 10:01:19;;;;;;;13.35;2.45;;;9.10;99.90;;;;;;5109267;28;20048;-82
2022/03/17 10:03:45;;;;;;;23.13;3.17;;;9.10;99.90;;;;;;5111868;28;20119;-79
2022/03/17 10:06:11;;;;;;;22.08;3.08;;;9.20;99.90;;;;;;5076199;28;20457;-83
2022/03/17 10:08:38;;;;;;;14.95;2.22;;;9.30;99.90;;;;;;5110048;28;20044;-80
2022/03/17 10:11:07;;;;;;;11.23;1.75;;;9.30;99.90;;;;;;5089919;28;20039;-83
2022/03/17 10:13:45;;;;;;;14.90;2.30;;;9.30;99.90;;;;;;5073949;28;20466;-80
2022/03/17 10:16:26;;;;;;;14.00;2.20;;;9.40;99.90;;;;;;5110789;28;20035;-80
2022/03/17 10:19:08;;;;;;;19.98;2.72;;;9.70;99.90;;;;;;5093228;28;20044;-80
2022/03/17 10:21:34;;;;;;;15.73;2.03;;;9.70;99.90;;;;;;5110095;28;20081;-82
2022/03/17 10:24:04;;;;;;;11.48;2.00;;;10.20;99.90;;;;;;5093245;28;20059;-82
2022/03/17 10:26:37;;;;;;;18.77;2.78;;;9.70;99.90;;;;;;5109792;28;20113;-81
2022/03/17 10:29:20;;;;;;;16.42;2.50;;;9.70;99.90;;;;;;5110069;28;20050;-80
2022/03/17 10:31:50;;;;;;;14.32;2.17;;;9.70;99.90;;;;;;5109034;28;20027;-82
2022/03/17 10:34:16;;;;;;;10.65;1.92;;;9.80;99.90;;;;;;5110274;28;20079;-80
2022/03/17 10:36:45;;;;;;;15.07;2.20;;;9.90;99.90;;;;;;5092817;28;20130;-83
2022/03/17 10:39:11;;;;;;;18.73;2.50;;;10.00;99.90;;;;;;5092578;28;20438;-80
2022/03/17 10:41:42;;;;;;;11.27;2.05;;;10.20;99.90;;;;;;5109849;28;20043;-80
2022/03/17 10:44:12;;;;;;;18.48;2.85;;;10.10;99.90;;;;;;5092906;28;20039;-83
2022/03/17 10:46:38;;;;;;;15.27;2.47;;;10.30;99.90;;;;;;5091463;28;20487;-82
2022/03/17 10:49:07;;;;;;;18.70;3.33;;;10.20;99.90;;;;;;5113207;28;20486;-81
2022/03/17 10:51:44;;;;;;;20.83;3.13;;;10.60;99.90;;;;;;5113534;28;20112;-81
2022/03/17 10:54:20;;;;;;;15.88;2.58;;;10.40;99.90;;;;;;5096760;28;20112;-82
2022/03/17 10:57:06;;;;;;;19.83;2.90;;;10.30;99.90;;;;;;5115018;27;20402;-83
2022/03/17 10:59:47;;;;;;;12.88;2.38;;;10.20;99.90;;;;;;5113408;28;20074;-82
2022/03/17 11:02:17;;;;;;;13.50;2.33;;;10.10;99.90;;;;;;5075176;28;20542;-83
2022/03/17 11:04:44;;;;;;;15.63;2.65;;;10.10;99.90;;;;;;5092939;28;20079;-82
2022/03/17 11:07:13;;;;;;;19.63;2.78;;;10.20;99.90;;;;;;5092484;28;20196;-81
2022/03/17 11:09:41;;;;;;;17.02;2.88;;;10.20;99.90;;;;;;5094333;28;20040;-84
2022/03/17 11:12:08;;;;;;;15.25;2.60;;;10.20;99.90;;;;;;5106656;28;20510;-81
2022/03/17 11:14:51;;;;;;;17.08;3.00;;;10.40;99.90;;;;;;5096357;28;20036;-81
2022/03/17 11:17:26;;;;;;;12.77;2.38;;;10.70;99.90;;;;;;5095155;28;20096;-80
2022/03/17 11:19:54;;;;;;;17.08;2.50;;;10.70;99.90;;;;;;5112887;28;20399;-81
2022/03/17 11:22:27;;;;;;;15.38;2.92;;;10.80;99.90;;;;;;5112889;28;20043;-81
2022/03/17 11:25:17;;;;;;;16.83;2.78;;;11.10;99.90;;;;;;5112706;28;20048;-79
2022/03/17 11:27:48;;;;;;;13.27;2.70;;;11.20;99.90;;;;;;5112923;28;20046;-82
2022/03/17 11:30:14;;;;;;;12.85;2.42;;;11.50;99.90;;;;;;5113105;28;20096;-82
2022/03/17 11:32:54;;;;;;;13.50;2.33;;;11.60;99.90;;;;;;5112598;28;20052;-81
2022/03/17 11:35:22;;;;;;;16.67;2.90;;;11.50;99.90;;;;;;5112453;28;20055;-82
2022/03/17 11:37:47;;;;;;;14.48;2.22;;;11.60;99.90;;;;;;5095676;28;20046;-83
2022/03/17 11:40:16;;;;;;;12.32;2.05;;;11.30;99.90;;;;;;5112414;28;20039;-81
2022/03/17 11:42:47;;;;;;;12.80;2.90;;;11.40;99.90;;;;;;5112651;28;20051;-82
2022/03/17 11:45:15;;;;;;;13.48;2.85;;;11.50;99.90;;;;;;5094207;28;20136;-83
2022/03/17 11:47:56;;;;;;;14.75;2.70;;;11.40;99.90;;;;;;5113914;28;20100;-82
2022/03/17 11:50:28;;;;;;;10.88;2.20;;;11.50;99.90;;;;;;5111905;28;20431;-79
2022/03/17 11:53:04;;;;;;;12.02;2.05;;;11.60;99.90;;;;;;5095032;28;20298;-79
2022/03/17 11:55:30;;;;;;;15.25;2.80;;;11.60;99.90;;;;;;5113331;28;20058;-81
2022/03/17 11:58:21;;;;;;;12.52;2.60;;;11.70;99.90;;;;;;5094910;28;20039;-83
2022/03/17 12:00:48;;;;;;;13.48;2.67;;;11.60;99.90;;;;;;5110783;28;20069;-81
2022/03/17 12:03:24;;;;;;;13.95;2.50;;;11.80;99.90;;;;;;5111984;28;20171;-79
2022/03/17 12:06:09;;;;;;;13.02;2.60;;;11.50;99.90;;;;;;5111641;28;20043;-80
2022/03/17 12:08:41;;;;;;;14.98;2.55;;;11.50;99.90;;;;;;5111647;28;20560;-80
2022/03/17 12:11:11;;;;;;;11.93;2.42;;;11.80;99.90;;;;;;5094934;28;20206;-82
2022/03/17 12:13:37;;;;;;;17.30;2.42;;;11.80;99.90;;;;;;5111872;28;20051;-80
2022/03/17 12:16:04;;;;;;;13.82;2.88;;;11.90;99.90;;;;;;5093766;28;20039;-80
2022/03/17 12:19:02;;;;;;;11.93;2.38;;;11.90;99.90;;;;;;5094693;28;20054;-78
2022/03/17 12:22:02;;;;;;;10.43;2.63;;;12.00;99.90;;;;;;5094825;28;20514;-83
2022/03/17 12:24:54;;;;;;;16.67;3.42;;;11.90;99.90;;;;;;5094559;28;20042;-81
2022/03/17 12:27:26;;;;;;;13.88;2.45;;;12.10;99.90;;;;;;5094325;28;20081;-81
2022/03/17 12:30:08;;;;;;;11.13;2.65;;;12.10;99.90;;;;;;5094492;28;20053;-83
2022/03/17 12:32:39;;;;;;;17.33;3.10;;;12.10;99.90;;;;;;5094926;28;20047;-80
2022/03/17 12:35:07;;;;;;;11.48;2.75;;;12.50;99.90;;;;;;5094448;28;20039;-79
2022/03/17 12:37:34;;;;;;;15.73;2.65;;;12.40;99.90;;;;;;5111451;28;20506;-82
2022/03/17 12:40:03;;;;;;;16.80;2.92;;;12.50;99.90;;;;;;5110794;28;20039;-80
2022/03/17 12:42:41;;;;;;;14.73;2.45;;;13.00;99.90;;;;;;5111765;27;20425;-80
2022/03/17 12:45:12;;;;;;;14.40;2.67;;;12.80;99.90;;;;;;5099407;28;20043;-79
2022/03/17 12:47:41;;;;;;;11.48;2.47;;;12.90;99.90;;;;;;5094473;28;20451;-83
2022/03/17 12:50:09;;;;;;;11.00;2.17;;;13.10;99.90;;;;;;5094141;28;20050;-81
2022/03/17 12:52:36;;;;;;;14.48;2.65;;;13.20;99.90;;;;;;5094071;28;20070;-82
2022/03/17 12:55:05;;;;;;;14.30;2.50;;;13.20;99.90;;;;;;5094161;28;20556;-81
2022/03/17 12:57:32;;;;;;;14.43;2.67;;;13.20;99.90;;;;;;5112541;28;20463;-82